Pride Of Rotterdam — PBAJ — position and weather

sailwx.info

Track history (hours):
 
Tides and Currents Weather Stations Pressure Air Temp Water Temp Dewpoint Dewpoint Depression Visibility Wind Speed Wind Dir Waves Ship Positions

Pride Of Rotterdam

Operator: P&O Ferries

Last reported at 2019-Jul-16 10:29 UTC. Time now 2019-Jul-16 10:57 UTC.
Position N 53°44' W 000°17'.

Length 214 m; draft 6.1 m.

Type: Ship. MMSI: 244980000.

Date/timePositionNaut miles runAvg speedWind from/ knotsBaromVisibWave heightAir tempDewpointWater temp
2019-Jul-16 10:29N 53°44' W 000°17'0 0.0
2019-Jul-16 09:59N 53°44' W 000°17'0 0.0
2019-Jul-16 09:29N 53°44' W 000°17'0 0.0
2019-Jul-16 08:59N 53°44' W 000°17'0 0.0
2019-Jul-16 08:28N 53°44' W 000°17'0 0.0
2019-Jul-16 07:58N 53°44' W 000°17'0 0.0
2019-Jul-16 07:28N 53°44' W 000°17'0 0.0
2019-Jul-16 06:58N 53°44' W 000°17'0 0.0
2019-Jul-16 06:28N 53°44' W 000°17'0 0.0
2019-Jul-16 06:01N 53°44' W 000°17'1 2.1
2019-Jul-16 05:30N 53°44' W 000°15'815.9
2019-Jul-16 05:00N 53°38' W 000°07'917.1
2019-Jul-16 04:30N 53°34' E 000°06'816.0
2019-Jul-16 04:00N 53°31' E 000°19'1415.6
2019-Jul-16 03:06N 53°25' E 000°41'216.0
2019-Jul-16 03:00N 53°25' E 000°43'1516.7
2019-Jul-16 02:06N 53°17' E 001°04'218.4
2019-Jul-16 02:00N 53°16' E 001°06'1218.9
2019-Jul-16 01:21N 53°06' E 001°20'719.9
2019-Jul-16 01:00N 53°01' E 001°28'1020.7
2019-Jul-16 00:30N 52°54' E 001°40'1020.2
2019-Jul-16 00:00N 52°48' E 001°53'1019.5
2019-Jul-15 23:30N 52°42' E 002°07'918.5
2019-Jul-15 23:00N 52°38' E 002°20'918.1
2019-Jul-15 22:30N 52°33' E 002°33'917.8
2019-Jul-15 22:00N 52°28' E 002°45'917.9
2019-Jul-15 21:29N 52°23' E 002°58'917.7
2019-Jul-15 21:00N 52°19' E 003°10'917.7
2019-Jul-15 20:30N 52°13' E 003°21'917.9
2019-Jul-15 20:00N 52°08' E 003°34'918.0
2019-Jul-15 19:30N 52°04' E 003°47'917.5
2019-Jul-15 19:00N 52°01' E 003°59'612.9
2019-Jul-15 18:30N 51°57' E 004°08'0 0.5
2019-Jul-15 18:00N 51°57' E 004°08'0 0.0
2019-Jul-15 17:30N 51°57' E 004°08'0 0.0
2019-Jul-15 17:00N 51°57' E 004°08'0 0.0
2019-Jul-15 16:30N 51°57' E 004°08'0 0.0
2019-Jul-15 16:00N 51°57' E 004°08'0 0.0
2019-Jul-15 15:30N 51°57' E 004°08'0 0.0
2019-Jul-15 15:00N 51°57' E 004°08'0 0.0
2019-Jul-15 14:30N 51°57' E 004°08'0 0.0
2019-Jul-15 14:00N 51°57' E 004°08'0 0.0
2019-Jul-15 13:30N 51°57' E 004°08'0 0.0
2019-Jul-15 13:00N 51°57' E 004°08'0 0.0
2019-Jul-15 12:30N 51°57' E 004°08'0 0.0
2019-Jul-15 12:00N 51°57' E 004°08'0 0.0
2019-Jul-15 11:30N 51°57' E 004°08'0 0.0
2019-Jul-15 11:00N 51°57' E 004°08'0 0.0
2019-Jul-15 10:30N 51°57' E 004°08'0 0.0
2019-Jul-15 10:00N 51°57' E 004°08'0 0.0
2019-Jul-15 09:30N 51°57' E 004°08'0 0.0
2019-Jul-15 09:00N 51°57' E 004°08'0 0.0
2019-Jul-15 08:30N 51°57' E 004°08'0 0.0
2019-Jul-15 08:00N 51°57' E 004°08'0 0.0
2019-Jul-15 07:30N 51°57' E 004°08'0 0.0
2019-Jul-15 07:00N 51°57' E 004°08'0 0.0
2019-Jul-15 06:30N 51°57' E 004°08'2 3.7
2019-Jul-15 06:00N 51°58' E 004°06'816.2
2019-Jul-15 05:30N 52°01' E 003°54'918.8
2019-Jul-15 05:00N 52°04' E 003°40'1019.0
2019-Jul-15 04:30N 52°09' E 003°26'1019.1
2019-Jul-15 04:00N 52°15' E 003°13'1019.4
2019-Jul-15 03:30N 52°21' E 003°01'1019.3
2019-Jul-15 03:00N 52°27' E 002°49'1019.1
2019-Jul-15 02:30N 52°33' E 002°36'919.0
2019-Jul-15 02:00N 52°39' E 002°24'918.4
2019-Jul-15 01:30N 52°45' E 002°13'917.9
2019-Jul-15 01:00N 52°51' E 002°03'917.6
2019-Jul-15 00:30N 52°57' E 001°51'917.4
2019-Jul-15 00:00N 53°02' E 001°40'1617.4
2019-Jul-14 23:06N 53°11' E 001°19'217.3
2019-Jul-14 23:00N 53°12' E 001°16'1517.1
2019-Jul-14 22:06N 53°22' E 000°56'217.0
2019-Jul-14 22:00N 53°22' E 000°53'1816.6
2019-Jul-14 20:57N 53°31' E 000°28'715.7
2019-Jul-14 20:30N 53°33' E 000°16'918.1
2019-Jul-14 20:00N 53°35' E 000°02'816.6
2019-Jul-14 19:30N 53°38' W 000°11'713.4
2019-Jul-14 19:00N 53°44' W 000°17'0 0.0
2019-Jul-14 18:29N 53°44' W 000°17'0 0.0
2019-Jul-14 17:59N 53°44' W 000°17'0 0.0
2019-Jul-14 17:29N 53°44' W 000°17'0 0.0
2019-Jul-14 16:59N 53°44' W 000°17'0 0.0
2019-Jul-14 16:29N 53°44' W 000°17'0 0.0
2019-Jul-14 15:58N 53°44' W 000°17'0 0.0
2019-Jul-14 15:28N 53°44' W 000°17'0 0.0
2019-Jul-14 14:58N 53°44' W 000°17'0 0.0
2019-Jul-14 14:28N 53°44' W 000°17'0 0.0
2019-Jul-14 13:57N 53°44' W 000°17'0 0.0
2019-Jul-14 13:30N 53°44' W 000°17'0 0.0
2019-Jul-14 13:00N 53°44' W 000°17'0 0.0
2019-Jul-14 12:30N 53°44' W 000°17'0 0.0
2019-Jul-14 12:00N 53°44' W 000°17'0 0.0
2019-Jul-14 11:29N 53°44' W 000°17'0 0.0
2019-Jul-14 10:59N 53°44' W 000°17'0 0.0
2019-Jul-14 10:29N 53°44' W 000°17'0 0.0
2019-Jul-14 09:59N 53°44' W 000°17'0 0.0
2019-Jul-14 09:29N 53°44' W 000°17'0 0.0
2019-Jul-14 08:58N 53°44' W 000°17'0 0.0
2019-Jul-14 08:28N 53°44' W 000°17'0 0.0
2019-Jul-14 07:58N 53°44' W 000°17'0 0.0
2019-Jul-14 07:28N 53°44' W 000°17'0 0.0
2019-Jul-14 07:01N 53°44' W 000°17'0 0.2
2019-Jul-14 06:30N 53°44' W 000°17'611.6
2019-Jul-14 06:00N 53°39' W 000°12'713.9
2019-Jul-14 05:30N 53°36' W 000°02'815.2
2019-Jul-14 05:00N 53°33' E 000°10'714.5
2019-Jul-14 04:30N 53°30' E 000°22'5314.4
2019-Jul-14 00:51N 52°58' E 001°31'515.4
2019-Jul-14 00:30N 52°54' E 001°37'917.4
2019-Jul-14 00:00N 52°49' E 001°49'917.1
2019-Jul-13 23:30N 52°45' E 002°01'816.7
2019-Jul-13 23:00N 52°41' E 002°13'816.1
2019-Jul-13 22:30N 52°36' E 002°24'815.9
2019-Jul-13 22:00N 52°32' E 002°35'916.0
2019-Jul-13 21:28N 52°27' E 002°47'1415.7
2019-Jul-13 20:36N 52°20' E 003°06'215.6
2019-Jul-13 20:29N 52°19' E 003°08'815.6
2019-Jul-13 20:00N 52°15' E 003°18'816.2
2019-Jul-13 19:30N 52°10' E 003°29'817.0
2019-Jul-13 19:00N 52°06' E 003°41'714.9
2019-Jul-13 18:31N 52°04' E 003°53'612.2
2019-Jul-13 18:00N 52°01' E 004°01'611.4
2019-Jul-13 17:30N 51°57' E 004°08'0 0.5
2019-Jul-13 16:59N 51°57' E 004°08'0 0.0
2019-Jul-13 16:28N 51°57' E 004°08'0 0.0
2019-Jul-13 15:58N 51°57' E 004°08'0 0.0
2019-Jul-13 15:28N 51°57' E 004°08'0 0.0
2019-Jul-13 14:58N 51°57' E 004°08'0 0.0
2019-Jul-13 14:30N 51°57' E 004°08'0 0.0
2019-Jul-13 14:00N 51°57' E 004°08'0 0.0
2019-Jul-13 13:30N 51°57' E 004°08'0 0.0
2019-Jul-13 13:00N 51°57' E 004°08'0 0.0
2019-Jul-13 12:30N 51°57' E 004°08'0 0.0
2019-Jul-13 11:59N 51°57' E 004°08'0 0.0
2019-Jul-13 10:59N 51°57' E 004°08'0 0.0
2019-Jul-13 10:29N 51°57' E 004°08'0 0.0
2019-Jul-13 09:59N 51°57' E 004°08'0 0.0
2019-Jul-13 09:28N 51°57' E 004°08'0 0.0
2019-Jul-13 08:58N 51°57' E 004°08'0 0.0
2019-Jul-13 08:28N 51°57' E 004°08'0 0.0
2019-Jul-13 07:58N 51°57' E 004°08'0 0.0
2019-Jul-13 07:30N 51°57' E 004°08'0 0.0
2019-Jul-13 07:01N 51°57' E 004°08'3 5.2
2019-Jul-13 06:30N 51°59' E 004°05'917.4
2019-Jul-13 06:00N 52°01' E 003°52'917.9
2019-Jul-13 05:30N 52°05' E 003°38'917.5
2019-Jul-13 05:00N 52°09' E 003°25'917.6
2019-Jul-13 04:28N 52°14' E 003°13'2118.1
2019-Jul-13 03:20N 52°28' E 002°48'618.3
2019-Jul-13 03:00N 52°31' E 002°40'918.4
2019-Jul-13 02:31N 52°37' E 002°29'918.5
2019-Jul-13 02:00N 52°43' E 002°17'918.1
2019-Jul-13 01:30N 52°49' E 002°06'917.9
2019-Jul-13 00:59N 52°56' E 001°54'6117.1
2019-Jul-12 21:23N 53°30' E 000°30'615.9
2019-Jul-12 21:00N 53°32' E 000°20'816.5
2019-Jul-12 20:31N 53°34' E 000°06'817.0
2019-Jul-12 20:01N 53°37' W 000°07'612.9
2019-Jul-12 19:30N 53°42' W 000°14'3 5.6
2019-Jul-12 18:58N 53°44' W 000°17'0 0.0
2019-Jul-12 18:28N 53°44' W 000°17'0 0.0
2019-Jul-12 17:58N 53°44' W 000°17'0 0.0
2019-Jul-12 17:30N 53°44' W 000°17'0 0.0
2019-Jul-12 17:00N 53°44' W 000°17'0 0.0
2019-Jul-12 16:30N 53°44' W 000°17'0 0.0
2019-Jul-12 16:00N 53°44' W 000°17'0 0.0
2019-Jul-12 15:29N 53°44' W 000°17'0 0.0
2019-Jul-12 14:59N 53°44' W 000°17'0 0.0
2019-Jul-12 14:29N 53°44' W 000°17'0 0.0
2019-Jul-12 13:59N 53°44' W 000°17'0 0.0
2019-Jul-12 13:29N 53°44' W 000°17'0 0.0
2019-Jul-12 12:58N 53°44' W 000°17'0 0.0
2019-Jul-12 12:28N 53°44' W 000°17'0 0.0
2019-Jul-12 11:58N 53°44' W 000°17'0 0.0
2019-Jul-12 11:28N 53°44' W 000°17'0 0.0
2019-Jul-12 10:58N 53°44' W 000°17'0 0.0
2019-Jul-12 10:30N 53°44' W 000°17'0 0.0
2019-Jul-12 10:00N 53°44' W 000°17'0 0.0
2019-Jul-12 09:30N 53°44' W 000°17'0 0.0
2019-Jul-12 09:00N 53°44' W 000°17'0 0.0
2019-Jul-12 08:29N 53°44' W 000°17'0 0.0
2019-Jul-12 07:59N 53°44' W 000°17'0 0.0
2019-Jul-12 07:29N 53°44' W 000°17'0 0.0
2019-Jul-12 06:59N 53°44' W 000°17'0 0.0
2019-Jul-12 06:29N 53°44' W 000°17'0 0.0
2019-Jul-12 06:00N 53°44' W 000°17'3 5.2
2019-Jul-12 05:30N 53°42' W 000°14'611.0
2019-Jul-12 05:00N 53°38' W 000°09'713.8
2019-Jul-12 04:30N 53°35' E 000°02'815.7
2019-Jul-12 04:00N 53°33' E 000°15'918.0
2019-Jul-12 03:30N 53°31' E 000°29'1817.9
2019-Jul-12 02:31N 53°23' E 000°56'017.6
2019-Jul-12 02:30N 53°23' E 000°56'2516.9
2019-Jul-12 01:01N 53°07' E 001°29'018.0
2019-Jul-12 01:00N 53°07' E 001°29'1017.7
2019-Jul-12 00:26N 53°01' E 001°43'818.5
2019-Jul-12 00:00N 52°58' E 001°55'918.9
2019-Jul-11 23:30N 52°51' E 002°06'1019.9
2019-Jul-11 23:00N 52°43' E 002°16'1019.6
2019-Jul-11 22:30N 52°38' E 002°30'1019.3
2019-Jul-11 22:00N 52°31' E 002°42'1019.3
2019-Jul-11 21:30N 52°25' E 002°54'918.7
2019-Jul-11 21:00N 52°20' E 003°07'918.4
2019-Jul-11 20:30N 52°15' E 003°19'918.2
2019-Jul-11 20:00N 52°09' E 003°31'918.0
2019-Jul-11 19:30N 52°05' E 003°44'918.4
2019-Jul-11 19:00N 52°01' E 003°57'714.8
2019-Jul-11 18:30N 51°57' E 004°08'1 1.4
2019-Jul-11 17:59N 51°57' E 004°08'0 0.0
2019-Jul-11 17:29N 51°57' E 004°08'0 0.0
2019-Jul-11 16:58N 51°57' E 004°08'0 0.0
2019-Jul-11 16:28N 51°57' E 004°08'0 0.0
2019-Jul-11 15:58N 51°57' E 004°08'0 0.0
2019-Jul-11 15:28N 51°57' E 004°08'0 0.0
2019-Jul-11 14:58N 51°57' E 004°08'0 0.0
2019-Jul-11 14:30N 51°57' E 004°08'0 0.0
2019-Jul-11 14:00N 51°57' E 004°08'0 0.0
2019-Jul-11 13:30N 51°57' E 004°08'0 0.0
2019-Jul-11 13:00N 51°57' E 004°08'0 0.0
2019-Jul-11 12:30N 51°57' E 004°08'0 0.0
2019-Jul-11 11:59N 51°57' E 004°08'0 0.0
2019-Jul-11 11:29N 51°57' E 004°08'0 0.0
2019-Jul-11 10:59N 51°57' E 004°08'0 0.0
2019-Jul-11 10:29N 51°57' E 004°08'0 0.0
2019-Jul-11 09:58N 51°57' E 004°08'0 0.0
2019-Jul-11 09:28N 51°57' E 004°08'0 0.0
2019-Jul-11 08:58N 51°57' E 004°08'0 0.0
2019-Jul-11 08:28N 51°57' E 004°08'0 0.0
2019-Jul-11 07:59N 51°57' E 004°08'0 0.0
2019-Jul-11 07:30N 51°57' E 004°08'0 0.0
2019-Jul-11 07:00N 51°57' E 004°08'0 0.0
2019-Jul-11 06:30N 51°57' E 004°08'2 3.4
2019-Jul-11 06:00N 51°58' E 004°07'917.1
2019-Jul-11 05:30N 52°01' E 003°54'917.6
2019-Jul-11 05:00N 52°04' E 003°40'917.8
2019-Jul-11 04:30N 52°08' E 003°27'918.6
2019-Jul-11 04:00N 52°13' E 003°14'1019.1
2019-Jul-11 03:30N 52°19' E 003°02'1019.3
2019-Jul-11 03:00N 52°25' E 002°50'1019.7
2019-Jul-11 02:30N 52°32' E 002°38'1019.9
2019-Jul-11 02:00N 52°38' E 002°25'1019.7
2019-Jul-11 01:30N 52°43' E 002°11'1020.2
2019-Jul-11 01:00N 52°46' E 001°56'1019.8
2019-Jul-11 00:30N 52°52' E 001°42'1019.8
2019-Jul-11 00:00N 52°59' E 001°31'4618.3
2019-Jul-10 21:29N 53°29' E 000°32'817.7
2019-Jul-10 21:00N 53°32' E 000°19'815.9
2019-Jul-10 20:30N 53°34' E 000°06'815.2
2019-Jul-10 20:00N 53°37' W 000°06'611.3
2019-Jul-10 19:30N 53°41' W 000°13'4 8.0
2019-Jul-10 18:59N 53°44' W 000°17'0 0.0
2019-Jul-10 18:29N 53°44' W 000°17'0 0.0
2019-Jul-10 17:58N 53°44' W 000°17'0 0.0
2019-Jul-10 17:28N 53°44' W 000°17'0 0.0
2019-Jul-10 16:58N 53°44' W 000°17'0 0.0
2019-Jul-10 16:28N 53°44' W 000°17'0 0.0
2019-Jul-10 15:58N 53°44' W 000°17'0 0.0
2019-Jul-10 15:30N 53°44' W 000°17'0 0.0
2019-Jul-10 15:00N 53°44' W 000°17'0 0.0
2019-Jul-10 14:30N 53°44' W 000°17'0 0.0
2019-Jul-10 14:00N 53°44' W 000°17'0 0.0
2019-Jul-10 13:30N 53°44' W 000°17'0 0.0
2019-Jul-10 12:59N 53°44' W 000°17'0 0.0
2019-Jul-10 12:29N 53°44' W 000°17'0 0.0
2019-Jul-10 11:59N 53°44' W 000°17'0 0.0
2019-Jul-10 11:29N 53°44' W 000°17'0 0.0
2019-Jul-10 10:58N 53°44' W 000°17'0 0.0
2019-Jul-10 10:28N 53°44' W 000°17'0 0.0
2019-Jul-10 09:58N 53°44' W 000°17'0 0.0
2019-Jul-10 09:28N 53°44' W 000°17'0 0.0
2019-Jul-10 08:58N 53°44' W 000°17'0 0.0
2019-Jul-10 08:30N 53°44' W 000°17'0 0.0
2019-Jul-10 08:00N 53°44' W 000°17'0 0.0
2019-Jul-10 07:30N 53°44' W 000°17'0 0.0
2019-Jul-10 07:00N 53°44' W 000°17'0 0.0
2019-Jul-10 06:29N 53°44' W 000°17'0 0.0
2019-Jul-10 06:00N 53°44' W 000°17'2 4.2
2019-Jul-10 05:30N 53°43' W 000°14'611.3
2019-Jul-10 05:00N 53°38' W 000°09'713.5
2019-Jul-10 04:30N 53°35' E 000°01'815.6
2019-Jul-10 04:00N 53°33' E 000°14'917.3
2019-Jul-10 03:30N 53°32' E 000°28'5017.8
2019-Jul-10 00:43N 53°04' E 001°37'417.7
2019-Jul-10 00:30N 53°02' E 001°42'917.8
2019-Jul-10 00:00N 52°57' E 001°54'918.6
2019-Jul-09 23:30N 52°50' E 002°05'1019.4
2019-Jul-09 23:00N 52°44' E 002°17'1020.1
2019-Jul-09 22:30N 52°38' E 002°30'1020.4
2019-Jul-09 22:00N 52°32' E 002°44'1020.4
2019-Jul-09 21:30N 52°25' E 002°57'1020.2
2019-Jul-09 21:00N 52°19' E 003°10'1020.0
2019-Jul-09 20:30N 52°13' E 003°23'1019.6
2019-Jul-09 20:00N 52°07' E 003°36'918.9
2019-Jul-09 19:30N 52°05' E 003°51'918.7
2019-Jul-09 19:00N 51°59' E 004°03'4 7.9
2019-Jul-09 18:30N 51°57' E 004°08'0 0.1
2019-Jul-09 18:00N 51°57' E 004°08'0 0.0
2019-Jul-09 17:30N 51°57' E 004°08'0 0.0
2019-Jul-09 17:00N 51°57' E 004°08'0 0.0
2019-Jul-09 16:29N 51°57' E 004°08'0 0.0
2019-Jul-09 15:59N 51°57' E 004°08'0 0.0
2019-Jul-09 15:29N 51°57' E 004°08'0 0.0
2019-Jul-09 14:59N 51°57' E 004°08'0 0.0
2019-Jul-09 14:28N 51°57' E 004°08'0 0.0
2019-Jul-09 13:58N 51°57' E 004°08'0 0.0
2019-Jul-09 13:25N 51°57' E 004°08'0 0.0
2019-Jul-09 12:58N 51°57' E 004°08'0 0.0
2019-Jul-09 12:28N 51°57' E 004°08'0 0.0
2019-Jul-09 12:00N 51°57' E 004°08'0 0.0
2019-Jul-09 11:30N 51°57' E 004°08'0 0.0
2019-Jul-09 11:00N 51°57' E 004°08'0 0.0
2019-Jul-09 10:30N 51°57' E 004°08'0 0.0
2019-Jul-09 10:00N 51°57' E 004°08'0 0.0
2019-Jul-09 09:29N 51°57' E 004°08'0 0.0
2019-Jul-09 08:59N 51°57' E 004°08'0 0.0
2019-Jul-09 08:29N 51°57' E 004°08'0 0.0
2019-Jul-09 07:59N 51°57' E 004°08'0 0.0
2019-Jul-09 07:28N 51°57' E 004°08'0 0.0
2019-Jul-09 06:58N 51°57' E 004°08'0 0.0
2019-Jul-09 06:30N 51°57' E 004°08'2 3.5
2019-Jul-09 06:01N 51°58' E 004°07'918.2
2019-Jul-09 05:31N 52°01' E 003°52'917.2
2019-Jul-09 05:00N 52°04' E 003°39'916.8
2019-Jul-09 04:30N 52°09' E 003°28'917.4
2019-Jul-09 04:00N 52°14' E 003°16'2217.8
2019-Jul-09 02:46N 52°28' E 002°49'519.0
2019-Jul-09 02:30N 52°31' E 002°42'1019.1
2019-Jul-09 02:00N 52°37' E 002°30'919.0
2019-Jul-09 01:30N 52°41' E 002°16'1019.8
2019-Jul-09 01:00N 52°45' E 002°01'1120.6
2019-Jul-09 00:30N 52°51' E 001°46'1820.7
2019-Jul-08 23:37N 52°59' E 001°20'420.3
2019-Jul-08 23:26N 53°00' E 001°14'2919.5
2019-Jul-08 21:58N 53°19' E 000°37'919.2
2019-Jul-08 21:30N 53°25' E 000°28'918.9
2019-Jul-08 21:00N 53°32' E 000°16'816.4
2019-Jul-08 20:30N 53°35' E 000°03'815.6
2019-Jul-08 20:00N 53°38' W 000°09'612.1
2019-Jul-08 19:30N 53°43' W 000°15'2 3.7
2019-Jul-08 18:59N 53°44' W 000°17'0 0.0
2019-Jul-08 18:29N 53°44' W 000°17'0 0.0
2019-Jul-08 17:58N 53°44' W 000°17'0 0.0
2019-Jul-08 17:28N 53°44' W 000°17'0 0.0
2019-Jul-08 16:58N 53°44' W 000°17'0 0.0
2019-Jul-08 16:28N 53°44' W 000°17'0 0.0
2019-Jul-08 16:01N 53°44' W 000°17'0 0.0
2019-Jul-08 15:30N 53°44' W 000°17'0 0.0
2019-Jul-08 15:00N 53°44' W 000°17'0 0.0
2019-Jul-08 14:30N 53°44' W 000°17'0 0.0
2019-Jul-08 14:00N 53°44' W 000°17'0 0.0
2019-Jul-08 13:29N 53°44' W 000°17'0 0.0
2019-Jul-08 12:59N 53°44' W 000°17'0 0.0
2019-Jul-08 12:29N 53°44' W 000°17'0 0.0
2019-Jul-08 11:59N 53°44' W 000°17'0 0.0
2019-Jul-08 11:29N 53°44' W 000°17'0 0.0
2019-Jul-08 10:55N 53°44' W 000°17'0 0.0
2019-Jul-08 10:28N 53°44' W 000°17'0 0.0
2019-Jul-08 09:58N 53°44' W 000°17'0 0.0
2019-Jul-08 09:28N 53°44' W 000°17'0 0.0
2019-Jul-08 09:01N 53°44' W 000°17'0 0.0
2019-Jul-08 08:30N 53°44' W 000°17'0 0.0
2019-Jul-08 08:00N 53°44' W 000°17'0 0.0
2019-Jul-08 07:30N 53°44' W 000°17'0 0.0
2019-Jul-08 07:00N 53°44' W 000°17'0 0.0
2019-Jul-08 06:29N 53°44' W 000°17'0 0.0
2019-Jul-08 06:00N 53°44' W 000°17'2 3.8
2019-Jul-08 05:30N 53°43' W 000°15'713.2
2019-Jul-08 05:00N 53°38' W 000°08'816.7
2019-Jul-08 04:30N 53°34' E 000°05'1416.5
2019-Jul-08 03:41N 53°32' E 000°27'1117.1
2019-Jul-08 03:01N 53°25' E 000°42'017.1
2019-Jul-08 03:00N 53°25' E 000°43'1617.3
2019-Jul-08 02:04N 53°17' E 001°06'117.0
2019-Jul-08 02:00N 53°16' E 001°08'1616.6
2019-Jul-08 01:04N 53°06' E 001°28'116.2
2019-Jul-08 01:00N 53°06' E 001°29'1015.7
2019-Jul-08 00:22N 53°00' E 001°43'515.4
2019-Jul-08 00:00N 52°57' E 001°51'815.2
2019-Jul-07 23:30N 52°53' E 002°01'815.2
2019-Jul-07 23:00N 52°47' E 002°10'815.9
2019-Jul-07 22:30N 52°42' E 002°19'917.1
2019-Jul-07 22:00N 52°37' E 002°31'917.6
2019-Jul-07 21:30N 52°32' E 002°42'2418.1
2019-Jul-07 20:09N 52°18' E 003°15'318.2
2019-Jul-07 20:00N 52°16' E 003°19'918.0
2019-Jul-07 19:30N 52°10' E 003°29'917.8
2019-Jul-07 19:00N 52°05' E 003°42'917.3
2019-Jul-07 18:30N 52°02' E 003°55'816.4
2019-Jul-07 18:00N 51°58' E 004°07'2 3.4
2019-Jul-07 17:29N 51°57' E 004°08'0 0.0
2019-Jul-07 16:56N 51°57' E 004°08'0 0.0
2019-Jul-07 16:29N 51°57' E 004°08'0 0.0
2019-Jul-07 15:58N 51°57' E 004°08'0 0.0
2019-Jul-07 15:28N 51°57' E 004°08'0 0.0
2019-Jul-07 14:58N 51°57' E 004°08'0 0.0
2019-Jul-07 14:28N 51°57' E 004°08'0 0.0
2019-Jul-07 13:58N 51°57' E 004°08'0 0.0
2019-Jul-07 13:30N 51°57' E 004°08'0 0.0
2019-Jul-07 13:00N 51°57' E 004°08'0 0.0
2019-Jul-07 12:30N 51°57' E 004°08'0 0.0
2019-Jul-07 12:00N 51°57' E 004°08'0 0.0
2019-Jul-07 11:27N 51°57' E 004°08'0 0.0
2019-Jul-07 10:59N 51°57' E 004°08'0 0.0
2019-Jul-07 10:29N 51°57' E 004°08'0 0.0
2019-Jul-07 09:59N 51°57' E 004°08'0 0.0
2019-Jul-07 09:29N 51°57' E 004°08'0 0.0
2019-Jul-07 08:59N 51°57' E 004°08'0 0.0
2019-Jul-07 08:28N 51°57' E 004°08'0 0.0
2019-Jul-07 07:58N 51°57' E 004°08'0 0.0
2019-Jul-07 07:28N 51°57' E 004°08'0 0.0
2019-Jul-07 07:00N 51°57' E 004°08'1 2.8
2019-Jul-07 06:30N 51°58' E 004°07'815.1
2019-Jul-07 06:00N 52°00' E 003°56'816.7
2019-Jul-07 05:30N 52°03' E 003°43'816.0
2019-Jul-07 05:00N 52°07' E 003°31'815.9
2019-Jul-07 04:29N 52°11' E 003°20'2315.7
2019-Jul-07 03:02N 52°26' E 002°51'216.0
2019-Jul-07 02:56N 52°27' E 002°49'1516.3
2019-Jul-07 02:00N 52°36' E 002°29'817.0
2019-Jul-07 01:31N 52°41' E 002°18'917.1
2019-Jul-07 01:01N 52°45' E 002°06'917.4
2019-Jul-07 00:31N 52°49' E 001°53'1018.3
2019-Jul-06 23:59N 52°54' E 001°39'918.8
2019-Jul-06 23:31N 53°00' E 001°29'1018.8
2019-Jul-06 22:59N 53°08' E 001°18'918.5
2019-Jul-06 22:30N 53°14' E 001°08'1018.2
2019-Jul-06 21:59N 53°21' E 000°57'2217.4
2019-Jul-06 20:43N 53°29' E 000°23'417.2
2019-Jul-06 20:30N 53°31' E 000°17'815.8
2019-Jul-06 20:00N 53°34' E 000°05'815.5
2019-Jul-06 19:30N 53°37' W 000°07'713.4
2019-Jul-06 19:00N 53°42' W 000°14'3 5.0
2019-Jul-06 18:29N 53°44' W 000°17'0 0.0
2019-Jul-06 17:59N 53°44' W 000°17'0 0.0
2019-Jul-06 17:29N 53°44' W 000°17'0 0.0
2019-Jul-06 16:59N 53°44' W 000°17'0 0.0
2019-Jul-06 16:28N 53°44' W 000°17'0 0.0
2019-Jul-06 15:58N 53°44' W 000°17'0 0.0
2019-Jul-06 15:28N 53°44' W 000°17'0 0.0
2019-Jul-06 14:58N 53°44' W 000°17'0 0.0
2019-Jul-06 14:30N 53°44' W 000°17'0 0.0
2019-Jul-06 14:00N 53°44' W 000°17'0 0.0
2019-Jul-06 13:30N 53°44' W 000°17'0 0.0
2019-Jul-06 13:00N 53°44' W 000°17'0 0.0
2019-Jul-06 12:30N 53°44' W 000°17'0 0.0
2019-Jul-06 11:59N 53°44' W 000°17'0 0.0
2019-Jul-06 11:29N 53°44' W 000°17'0 0.0
2019-Jul-06 10:59N 53°44' W 000°17'  
Track history (hours):
 
Tides and Currents Weather Stations Pressure Air Temp Water Temp Dewpoint Dewpoint Depression Visibility Wind Speed Wind Dir Waves Ship Positions

Pride Of Rotterdam

Operator: P&O Ferries

Last reported at 2019-Jul-16 10:29 UTC. Time now 2019-Jul-16 10:57 UTC.
Position N 53°44' W 000°17'.

Length 214 m; draft 6.1 m.

Type: Ship. MMSI: 244980000.

Date/timePositionNaut miles runAvg speedWind from/ knotsBaromVisibWave heightAir tempDewpointWater temp
2019-Jul-16 10:29N 53°44' W 000°17'0 0.0
2019-Jul-16 09:59N 53°44' W 000°17'0 0.0
2019-Jul-16 09:29N 53°44' W 000°17'0 0.0
2019-Jul-16 08:59N 53°44' W 000°17'0 0.0
2019-Jul-16 08:28N 53°44' W 000°17'0 0.0
2019-Jul-16 07:58N 53°44' W 000°17'0 0.0
2019-Jul-16 07:28N 53°44' W 000°17'0 0.0
2019-Jul-16 06:58N 53°44' W 000°17'0 0.0
2019-Jul-16 06:28N 53°44' W 000°17'0 0.0
2019-Jul-16 06:01N 53°44' W 000°17'1 2.1
2019-Jul-16 05:30N 53°44' W 000°15'815.9
2019-Jul-16 05:00N 53°38' W 000°07'917.1
2019-Jul-16 04:30N 53°34' E 000°06'816.0
2019-Jul-16 04:00N 53°31' E 000°19'1415.6
2019-Jul-16 03:06N 53°25' E 000°41'216.0
2019-Jul-16 03:00N 53°25' E 000°43'1516.7
2019-Jul-16 02:06N 53°17' E 001°04'218.4
2019-Jul-16 02:00N 53°16' E 001°06'1218.9
2019-Jul-16 01:21N 53°06' E 001°20'719.9
2019-Jul-16 01:00N 53°01' E 001°28'1020.7
2019-Jul-16 00:30N 52°54' E 001°40'1020.2
2019-Jul-16 00:00N 52°48' E 001°53'1019.5
2019-Jul-15 23:30N 52°42' E 002°07'918.5
2019-Jul-15 23:00N 52°38' E 002°20'918.1
2019-Jul-15 22:30N 52°33' E 002°33'917.8
2019-Jul-15 22:00N 52°28' E 002°45'917.9
2019-Jul-15 21:29N 52°23' E 002°58'917.7
2019-Jul-15 21:00N 52°19' E 003°10'917.7
2019-Jul-15 20:30N 52°13' E 003°21'917.9
2019-Jul-15 20:00N 52°08' E 003°34'918.0
2019-Jul-15 19:30N 52°04' E 003°47'917.5
2019-Jul-15 19:00N 52°01' E 003°59'612.9
2019-Jul-15 18:30N 51°57' E 004°08'0 0.5
2019-Jul-15 18:00N 51°57' E 004°08'0 0.0
2019-Jul-15 17:30N 51°57' E 004°08'0 0.0
2019-Jul-15 17:00N 51°57' E 004°08'0 0.0
2019-Jul-15 16:30N 51°57' E 004°08'0 0.0
2019-Jul-15 16:00N 51°57' E 004°08'0 0.0
2019-Jul-15 15:30N 51°57' E 004°08'0 0.0
2019-Jul-15 15:00N 51°57' E 004°08'0 0.0
2019-Jul-15 14:30N 51°57' E 004°08'0 0.0
2019-Jul-15 14:00N 51°57' E 004°08'0 0.0
2019-Jul-15 13:30N 51°57' E 004°08'0 0.0
2019-Jul-15 13:00N 51°57' E 004°08'0 0.0
2019-Jul-15 12:30N 51°57' E 004°08'0 0.0
2019-Jul-15 12:00N 51°57' E 004°08'0 0.0
2019-Jul-15 11:30N 51°57' E 004°08'0 0.0
2019-Jul-15 11:00N 51°57' E 004°08'0 0.0
2019-Jul-15 10:30N 51°57' E 004°08'0 0.0
2019-Jul-15 10:00N 51°57' E 004°08'0 0.0
2019-Jul-15 09:30N 51°57' E 004°08'0 0.0
2019-Jul-15 09:00N 51°57' E 004°08'0 0.0
2019-Jul-15 08:30N 51°57' E 004°08'0 0.0
2019-Jul-15 08:00N 51°57' E 004°08'0 0.0
2019-Jul-15 07:30N 51°57' E 004°08'0 0.0
2019-Jul-15 07:00N 51°57' E 004°08'0 0.0
2019-Jul-15 06:30N 51°57' E 004°08'2 3.7
2019-Jul-15 06:00N 51°58' E 004°06'816.2
2019-Jul-15 05:30N 52°01' E 003°54'918.8
2019-Jul-15 05:00N 52°04' E 003°40'1019.0
2019-Jul-15 04:30N 52°09' E 003°26'1019.1
2019-Jul-15 04:00N 52°15' E 003°13'1019.4
2019-Jul-15 03:30N 52°21' E 003°01'1019.3
2019-Jul-15 03:00N 52°27' E 002°49'1019.1
2019-Jul-15 02:30N 52°33' E 002°36'919.0
2019-Jul-15 02:00N 52°39' E 002°24'918.4
2019-Jul-15 01:30N 52°45' E 002°13'917.9
2019-Jul-15 01:00N 52°51' E 002°03'917.6
2019-Jul-15 00:30N 52°57' E 001°51'917.4
2019-Jul-15 00:00N 53°02' E 001°40'1617.4
2019-Jul-14 23:06N 53°11' E 001°19'217.3
2019-Jul-14 23:00N 53°12' E 001°16'1517.1
2019-Jul-14 22:06N 53°22' E 000°56'217.0
2019-Jul-14 22:00N 53°22' E 000°53'1816.6
2019-Jul-14 20:57N 53°31' E 000°28'715.7
2019-Jul-14 20:30N 53°33' E 000°16'918.1
2019-Jul-14 20:00N 53°35' E 000°02'816.6
2019-Jul-14 19:30N 53°38' W 000°11'713.4
2019-Jul-14 19:00N 53°44' W 000°17'0 0.0
2019-Jul-14 18:29N 53°44' W 000°17'0 0.0
2019-Jul-14 17:59N 53°44' W 000°17'0 0.0
2019-Jul-14 17:29N 53°44' W 000°17'0 0.0
2019-Jul-14 16:59N 53°44' W 000°17'0 0.0
2019-Jul-14 16:29N 53°44' W 000°17'0 0.0
2019-Jul-14 15:58N 53°44' W 000°17'0 0.0
2019-Jul-14 15:28N 53°44' W 000°17'0 0.0
2019-Jul-14 14:58N 53°44' W 000°17'0 0.0
2019-Jul-14 14:28N 53°44' W 000°17'0 0.0
2019-Jul-14 13:57N 53°44' W 000°17'0 0.0
2019-Jul-14 13:30N 53°44' W 000°17'0 0.0
2019-Jul-14 13:00N 53°44' W 000°17'0 0.0
2019-Jul-14 12:30N 53°44' W 000°17'0 0.0
2019-Jul-14 12:00N 53°44' W 000°17'0 0.0
2019-Jul-14 11:29N 53°44' W 000°17'0 0.0
2019-Jul-14 10:59N 53°44' W 000°17'0 0.0
2019-Jul-14 10:29N 53°44' W 000°17'0 0.0
2019-Jul-14 09:59N 53°44' W 000°17'0 0.0
2019-Jul-14 09:29N 53°44' W 000°17'0 0.0
2019-Jul-14 08:58N 53°44' W 000°17'0 0.0
2019-Jul-14 08:28N 53°44' W 000°17'0 0.0
2019-Jul-14 07:58N 53°44' W 000°17'0 0.0
2019-Jul-14 07:28N 53°44' W 000°17'0 0.0
2019-Jul-14 07:01N 53°44' W 000°17'0 0.2
2019-Jul-14 06:30N 53°44' W 000°17'611.6
2019-Jul-14 06:00N 53°39' W 000°12'713.9
2019-Jul-14 05:30N 53°36' W 000°02'815.2
2019-Jul-14 05:00N 53°33' E 000°10'714.5
2019-Jul-14 04:30N 53°30' E 000°22'5314.4
2019-Jul-14 00:51N 52°58' E 001°31'515.4
2019-Jul-14 00:30N 52°54' E 001°37'917.4
2019-Jul-14 00:00N 52°49' E 001°49'917.1
2019-Jul-13 23:30N 52°45' E 002°01'816.7
2019-Jul-13 23:00N 52°41' E 002°13'816.1
2019-Jul-13 22:30N 52°36' E 002°24'815.9
2019-Jul-13 22:00N 52°32' E 002°35'916.0
2019-Jul-13 21:28N 52°27' E 002°47'1415.7
2019-Jul-13 20:36N 52°20' E 003°06'215.6
2019-Jul-13 20:29N 52°19' E 003°08'815.6
2019-Jul-13 20:00N 52°15' E 003°18'816.2
2019-Jul-13 19:30N 52°10' E 003°29'817.0
2019-Jul-13 19:00N 52°06' E 003°41'714.9
2019-Jul-13 18:31N 52°04' E 003°53'612.2
2019-Jul-13 18:00N 52°01' E 004°01'611.4
2019-Jul-13 17:30N 51°57' E 004°08'0 0.5
2019-Jul-13 16:59N 51°57' E 004°08'0 0.0
2019-Jul-13 16:28N 51°57' E 004°08'0 0.0
2019-Jul-13 15:58N 51°57' E 004°08'0 0.0
2019-Jul-13 15:28N 51°57' E 004°08'0 0.0
2019-Jul-13 14:58N 51°57' E 004°08'0 0.0
2019-Jul-13 14:30N 51°57' E 004°08'0 0.0
2019-Jul-13 14:00N 51°57' E 004°08'0 0.0
2019-Jul-13 13:30N 51°57' E 004°08'0 0.0
2019-Jul-13 13:00N 51°57' E 004°08'0 0.0
2019-Jul-13 12:30N 51°57' E 004°08'0 0.0
2019-Jul-13 11:59N 51°57' E 004°08'0 0.0
2019-Jul-13 10:59N 51°57' E 004°08'0 0.0
2019-Jul-13 10:29N 51°57' E 004°08'0 0.0
2019-Jul-13 09:59N 51°57' E 004°08'0 0.0
2019-Jul-13 09:28N 51°57' E 004°08'0 0.0
2019-Jul-13 08:58N 51°57' E 004°08'0 0.0
2019-Jul-13 08:28N 51°57' E 004°08'0 0.0
2019-Jul-13 07:58N 51°57' E 004°08'0 0.0
2019-Jul-13 07:30N 51°57' E 004°08'0 0.0
2019-Jul-13 07:01N 51°57' E 004°08'3 5.2
2019-Jul-13 06:30N 51°59' E 004°05'917.4
2019-Jul-13 06:00N 52°01' E 003°52'917.9
2019-Jul-13 05:30N 52°05' E 003°38'917.5
2019-Jul-13 05:00N 52°09' E 003°25'917.6
2019-Jul-13 04:28N 52°14' E 003°13'2118.1
2019-Jul-13 03:20N 52°28' E 002°48'618.3
2019-Jul-13 03:00N 52°31' E 002°40'918.4
2019-Jul-13 02:31N 52°37' E 002°29'918.5
2019-Jul-13 02:00N 52°43' E 002°17'918.1
2019-Jul-13 01:30N 52°49' E 002°06'917.9
2019-Jul-13 00:59N 52°56' E 001°54'6117.1
2019-Jul-12 21:23N 53°30' E 000°30'615.9
2019-Jul-12 21:00N 53°32' E 000°20'816.5
2019-Jul-12 20:31N 53°34' E 000°06'817.0
2019-Jul-12 20:01N 53°37' W 000°07'612.9
2019-Jul-12 19:30N 53°42' W 000°14'3 5.6
2019-Jul-12 18:58N 53°44' W 000°17'0 0.0
2019-Jul-12 18:28N 53°44' W 000°17'0 0.0
2019-Jul-12 17:58N 53°44' W 000°17'0 0.0
2019-Jul-12 17:30N 53°44' W 000°17'0 0.0
2019-Jul-12 17:00N 53°44' W 000°17'0 0.0
2019-Jul-12 16:30N 53°44' W 000°17'0 0.0
2019-Jul-12 16:00N 53°44' W 000°17'0 0.0
2019-Jul-12 15:29N 53°44' W 000°17'0 0.0
2019-Jul-12 14:59N 53°44' W 000°17'0 0.0
2019-Jul-12 14:29N 53°44' W 000°17'0 0.0
2019-Jul-12 13:59N 53°44' W 000°17'0 0.0
2019-Jul-12 13:29N 53°44' W 000°17'0 0.0
2019-Jul-12 12:58N 53°44' W 000°17'0 0.0
2019-Jul-12 12:28N 53°44' W 000°17'0 0.0
2019-Jul-12 11:58N 53°44' W 000°17'0 0.0
2019-Jul-12 11:28N 53°44' W 000°17'0 0.0
2019-Jul-12 10:58N 53°44' W 000°17'0 0.0
2019-Jul-12 10:30N 53°44' W 000°17'0 0.0
2019-Jul-12 10:00N 53°44' W 000°17'0 0.0
2019-Jul-12 09:30N 53°44' W 000°17'0 0.0
2019-Jul-12 09:00N 53°44' W 000°17'0 0.0
2019-Jul-12 08:29N 53°44' W 000°17'0 0.0
2019-Jul-12 07:59N 53°44' W 000°17'0 0.0
2019-Jul-12 07:29N 53°44' W 000°17'0 0.0
2019-Jul-12 06:59N 53°44' W 000°17'0 0.0
2019-Jul-12 06:29N 53°44' W 000°17'0 0.0
2019-Jul-12 06:00N 53°44' W 000°17'3 5.2
2019-Jul-12 05:30N 53°42' W 000°14'611.0
2019-Jul-12 05:00N 53°38' W 000°09'713.8
2019-Jul-12 04:30N 53°35' E 000°02'815.7
2019-Jul-12 04:00N 53°33' E 000°15'918.0
2019-Jul-12 03:30N 53°31' E 000°29'1817.9
2019-Jul-12 02:31N 53°23' E 000°56'017.6
2019-Jul-12 02:30N 53°23' E 000°56'2516.9
2019-Jul-12 01:01N 53°07' E 001°29'018.0
2019-Jul-12 01:00N 53°07' E 001°29'1017.7
2019-Jul-12 00:26N 53°01' E 001°43'818.5
2019-Jul-12 00:00N 52°58' E 001°55'918.9
2019-Jul-11 23:30N 52°51' E 002°06'1019.9
2019-Jul-11 23:00N 52°43' E 002°16'1019.6
2019-Jul-11 22:30N 52°38' E 002°30'1019.3
2019-Jul-11 22:00N 52°31' E 002°42'1019.3
2019-Jul-11 21:30N 52°25' E 002°54'918.7
2019-Jul-11 21:00N 52°20' E 003°07'918.4
2019-Jul-11 20:30N 52°15' E 003°19'918.2
2019-Jul-11 20:00N 52°09' E 003°31'918.0
2019-Jul-11 19:30N 52°05' E 003°44'918.4
2019-Jul-11 19:00N 52°01' E 003°57'714.8
2019-Jul-11 18:30N 51°57' E 004°08'1 1.4
2019-Jul-11 17:59N 51°57' E 004°08'0 0.0
2019-Jul-11 17:29N 51°57' E 004°08'0 0.0
2019-Jul-11 16:58N 51°57' E 004°08'0 0.0
2019-Jul-11 16:28N 51°57' E 004°08'0 0.0
2019-Jul-11 15:58N 51°57' E 004°08'0 0.0
2019-Jul-11 15:28N 51°57' E 004°08'0 0.0
2019-Jul-11 14:58N 51°57' E 004°08'0 0.0
2019-Jul-11 14:30N 51°57' E 004°08'0 0.0
2019-Jul-11 14:00N 51°57' E 004°08'0 0.0
2019-Jul-11 13:30N 51°57' E 004°08'0 0.0
2019-Jul-11 13:00N 51°57' E 004°08'0 0.0
2019-Jul-11 12:30N 51°57' E 004°08'0 0.0
2019-Jul-11 11:59N 51°57' E 004°08'0 0.0
2019-Jul-11 11:29N 51°57' E 004°08'0 0.0
2019-Jul-11 10:59N 51°57' E 004°08'0 0.0
2019-Jul-11 10:29N 51°57' E 004°08'0 0.0
2019-Jul-11 09:58N 51°57' E 004°08'0 0.0
2019-Jul-11 09:28N 51°57' E 004°08'0 0.0
2019-Jul-11 08:58N 51°57' E 004°08'0 0.0
2019-Jul-11 08:28N 51°57' E 004°08'0 0.0
2019-Jul-11 07:59N 51°57' E 004°08'0 0.0
2019-Jul-11 07:30N 51°57' E 004°08'0 0.0
2019-Jul-11 07:00N 51°57' E 004°08'0 0.0
2019-Jul-11 06:30N 51°57' E 004°08'2 3.4
2019-Jul-11 06:00N 51°58' E 004°07'917.1
2019-Jul-11 05:30N 52°01' E 003°54'917.6
2019-Jul-11 05:00N 52°04' E 003°40'917.8
2019-Jul-11 04:30N 52°08' E 003°27'918.6
2019-Jul-11 04:00N 52°13' E 003°14'1019.1
2019-Jul-11 03:30N 52°19' E 003°02'1019.3
2019-Jul-11 03:00N 52°25' E 002°50'1019.7
2019-Jul-11 02:30N 52°32' E 002°38'1019.9
2019-Jul-11 02:00N 52°38' E 002°25'1019.7
2019-Jul-11 01:30N 52°43' E 002°11'1020.2
2019-Jul-11 01:00N 52°46' E 001°56'1019.8
2019-Jul-11 00:30N 52°52' E 001°42'1019.8
2019-Jul-11 00:00N 52°59' E 001°31'4618.3
2019-Jul-10 21:29N 53°29' E 000°32'817.7
2019-Jul-10 21:00N 53°32' E 000°19'815.9
2019-Jul-10 20:30N 53°34' E 000°06'815.2
2019-Jul-10 20:00N 53°37' W 000°06'611.3
2019-Jul-10 19:30N 53°41' W 000°13'4 8.0
2019-Jul-10 18:59N 53°44' W 000°17'0 0.0
2019-Jul-10 18:29N 53°44' W 000°17'0 0.0
2019-Jul-10 17:58N 53°44' W 000°17'0 0.0
2019-Jul-10 17:28N 53°44' W 000°17'0 0.0
2019-Jul-10 16:58N 53°44' W 000°17'0 0.0
2019-Jul-10 16:28N 53°44' W 000°17'0 0.0
2019-Jul-10 15:58N 53°44' W 000°17'0 0.0
2019-Jul-10 15:30N 53°44' W 000°17'0 0.0
2019-Jul-10 15:00N 53°44' W 000°17'0 0.0
2019-Jul-10 14:30N 53°44' W 000°17'0 0.0
2019-Jul-10 14:00N 53°44' W 000°17'0 0.0
2019-Jul-10 13:30N 53°44' W 000°17'0 0.0
2019-Jul-10 12:59N 53°44' W 000°17'0 0.0
2019-Jul-10 12:29N 53°44' W 000°17'0 0.0
2019-Jul-10 11:59N 53°44' W 000°17'0 0.0
2019-Jul-10 11:29N 53°44' W 000°17'0 0.0
2019-Jul-10 10:58N 53°44' W 000°17'0 0.0
2019-Jul-10 10:28N 53°44' W 000°17'0 0.0
2019-Jul-10 09:58N 53°44' W 000°17'0 0.0
2019-Jul-10 09:28N 53°44' W 000°17'0 0.0
2019-Jul-10 08:58N 53°44' W 000°17'0 0.0
2019-Jul-10 08:30N 53°44' W 000°17'0 0.0
2019-Jul-10 08:00N 53°44' W 000°17'0 0.0
2019-Jul-10 07:30N 53°44' W 000°17'0 0.0
2019-Jul-10 07:00N 53°44' W 000°17'0 0.0
2019-Jul-10 06:29N 53°44' W 000°17'0 0.0
2019-Jul-10 06:00N 53°44' W 000°17'2 4.2
2019-Jul-10 05:30N 53°43' W 000°14'611.3
2019-Jul-10 05:00N 53°38' W 000°09'713.5
2019-Jul-10 04:30N 53°35' E 000°01'815.6
2019-Jul-10 04:00N 53°33' E 000°14'917.3
2019-Jul-10 03:30N 53°32' E 000°28'5017.8
2019-Jul-10 00:43N 53°04' E 001°37'417.7
2019-Jul-10 00:30N 53°02' E 001°42'917.8
2019-Jul-10 00:00N 52°57' E 001°54'918.6
2019-Jul-09 23:30N 52°50' E 002°05'1019.4
2019-Jul-09 23:00N 52°44' E 002°17'1020.1
2019-Jul-09 22:30N 52°38' E 002°30'1020.4
2019-Jul-09 22:00N 52°32' E 002°44'1020.4
2019-Jul-09 21:30N 52°25' E 002°57'1020.2
2019-Jul-09 21:00N 52°19' E 003°10'1020.0
2019-Jul-09 20:30N 52°13' E 003°23'1019.6
2019-Jul-09 20:00N 52°07' E 003°36'918.9
2019-Jul-09 19:30N 52°05' E 003°51'918.7
2019-Jul-09 19:00N 51°59' E 004°03'4 7.9
2019-Jul-09 18:30N 51°57' E 004°08'0 0.1
2019-Jul-09 18:00N 51°57' E 004°08'0 0.0
2019-Jul-09 17:30N 51°57' E 004°08'0 0.0
2019-Jul-09 17:00N 51°57' E 004°08'0 0.0
2019-Jul-09 16:29N 51°57' E 004°08'0 0.0
2019-Jul-09 15:59N 51°57' E 004°08'0 0.0
2019-Jul-09 15:29N 51°57' E 004°08'0 0.0
2019-Jul-09 14:59N 51°57' E 004°08'0 0.0
2019-Jul-09 14:28N 51°57' E 004°08'0 0.0
2019-Jul-09 13:58N 51°57' E 004°08'0 0.0
2019-Jul-09 13:25N 51°57' E 004°08'0 0.0
2019-Jul-09 12:58N 51°57' E 004°08'0 0.0
2019-Jul-09 12:28N 51°57' E 004°08'0 0.0
2019-Jul-09 12:00N 51°57' E 004°08'0 0.0
2019-Jul-09 11:30N 51°57' E 004°08'0 0.0
2019-Jul-09 11:00N 51°57' E 004°08'0 0.0
2019-Jul-09 10:30N 51°57' E 004°08'0 0.0
2019-Jul-09 10:00N 51°57' E 004°08'0 0.0
2019-Jul-09 09:29N 51°57' E 004°08'0 0.0
2019-Jul-09 08:59N 51°57' E 004°08'0 0.0
2019-Jul-09 08:29N 51°57' E 004°08'0 0.0
2019-Jul-09 07:59N 51°57' E 004°08'0 0.0
2019-Jul-09 07:28N 51°57' E 004°08'0 0.0
2019-Jul-09 06:58N 51°57' E 004°08'0 0.0
2019-Jul-09 06:30N 51°57' E 004°08'2 3.5
2019-Jul-09 06:01N 51°58' E 004°07'918.2
2019-Jul-09 05:31N 52°01' E 003°52'917.2
2019-Jul-09 05:00N 52°04' E 003°39'916.8
2019-Jul-09 04:30N 52°09' E 003°28'917.4
2019-Jul-09 04:00N 52°14' E 003°16'2217.8
2019-Jul-09 02:46N 52°28' E 002°49'519.0
2019-Jul-09 02:30N 52°31' E 002°42'1019.1
2019-Jul-09 02:00N 52°37' E 002°30'919.0
2019-Jul-09 01:30N 52°41' E 002°16'1019.8
2019-Jul-09 01:00N 52°45' E 002°01'1120.6
2019-Jul-09 00:30N 52°51' E 001°46'1820.7
2019-Jul-08 23:37N 52°59' E 001°20'420.3
2019-Jul-08 23:26N 53°00' E 001°14'2919.5
2019-Jul-08 21:58N 53°19' E 000°37'919.2
2019-Jul-08 21:30N 53°25' E 000°28'918.9
2019-Jul-08 21:00N 53°32' E 000°16'816.4
2019-Jul-08 20:30N 53°35' E 000°03'815.6
2019-Jul-08 20:00N 53°38' W 000°09'612.1
2019-Jul-08 19:30N 53°43' W 000°15'2 3.7
2019-Jul-08 18:59N 53°44' W 000°17'0 0.0
2019-Jul-08 18:29N 53°44' W 000°17'0 0.0
2019-Jul-08 17:58N 53°44' W 000°17'0 0.0
2019-Jul-08 17:28N 53°44' W 000°17'0 0.0
2019-Jul-08 16:58N 53°44' W 000°17'0 0.0
2019-Jul-08 16:28N 53°44' W 000°17'0 0.0
2019-Jul-08 16:01N 53°44' W 000°17'0 0.0
2019-Jul-08 15:30N 53°44' W 000°17'0 0.0
2019-Jul-08 15:00N 53°44' W 000°17'0 0.0
2019-Jul-08 14:30N 53°44' W 000°17'0 0.0
2019-Jul-08 14:00N 53°44' W 000°17'0 0.0
2019-Jul-08 13:29N 53°44' W 000°17'0 0.0
2019-Jul-08 12:59N 53°44' W 000°17'0 0.0
2019-Jul-08 12:29N 53°44' W 000°17'0 0.0
2019-Jul-08 11:59N 53°44' W 000°17'0 0.0
2019-Jul-08 11:29N 53°44' W 000°17'0 0.0
2019-Jul-08 10:55N 53°44' W 000°17'0 0.0
2019-Jul-08 10:28N 53°44' W 000°17'0 0.0
2019-Jul-08 09:58N 53°44' W 000°17'0 0.0
2019-Jul-08 09:28N 53°44' W 000°17'0 0.0
2019-Jul-08 09:01N 53°44' W 000°17'0 0.0
2019-Jul-08 08:30N 53°44' W 000°17'0 0.0
2019-Jul-08 08:00N 53°44' W 000°17'0 0.0
2019-Jul-08 07:30N 53°44' W 000°17'0 0.0
2019-Jul-08 07:00N 53°44' W 000°17'0 0.0
2019-Jul-08 06:29N 53°44' W 000°17'0 0.0
2019-Jul-08 06:00N 53°44' W 000°17'2 3.8
2019-Jul-08 05:30N 53°43' W 000°15'713.2
2019-Jul-08 05:00N 53°38' W 000°08'816.7
2019-Jul-08 04:30N 53°34' E 000°05'1416.5
2019-Jul-08 03:41N 53°32' E 000°27'1117.1
2019-Jul-08 03:01N 53°25' E 000°42'017.1
2019-Jul-08 03:00N 53°25' E 000°43'1617.3
2019-Jul-08 02:04N 53°17' E 001°06'117.0
2019-Jul-08 02:00N 53°16' E 001°08'1616.6
2019-Jul-08 01:04N 53°06' E 001°28'116.2
2019-Jul-08 01:00N 53°06' E 001°29'1015.7
2019-Jul-08 00:22N 53°00' E 001°43'515.4
2019-Jul-08 00:00N 52°57' E 001°51'815.2
2019-Jul-07 23:30N 52°53' E 002°01'815.2
2019-Jul-07 23:00N 52°47' E 002°10'815.9
2019-Jul-07 22:30N 52°42' E 002°19'917.1
2019-Jul-07 22:00N 52°37' E 002°31'917.6
2019-Jul-07 21:30N 52°32' E 002°42'2418.1
2019-Jul-07 20:09N 52°18' E 003°15'318.2
2019-Jul-07 20:00N 52°16' E 003°19'918.0
2019-Jul-07 19:30N 52°10' E 003°29'917.8
2019-Jul-07 19:00N 52°05' E 003°42'917.3
2019-Jul-07 18:30N 52°02' E 003°55'816.4
2019-Jul-07 18:00N 51°58' E 004°07'2 3.4
2019-Jul-07 17:29N 51°57' E 004°08'0 0.0
2019-Jul-07 16:56N 51°57' E 004°08'0 0.0
2019-Jul-07 16:29N 51°57' E 004°08'0 0.0
2019-Jul-07 15:58N 51°57' E 004°08'0 0.0
2019-Jul-07 15:28N 51°57' E 004°08'0 0.0
2019-Jul-07 14:58N 51°57' E 004°08'0 0.0
2019-Jul-07 14:28N 51°57' E 004°08'0 0.0
2019-Jul-07 13:58N 51°57' E 004°08'0 0.0
2019-Jul-07 13:30N 51°57' E 004°08'0 0.0
2019-Jul-07 13:00N 51°57' E 004°08'0 0.0
2019-Jul-07 12:30N 51°57' E 004°08'0 0.0
2019-Jul-07 12:00N 51°57' E 004°08'0 0.0
2019-Jul-07 11:27N 51°57' E 004°08'0 0.0
2019-Jul-07 10:59N 51°57' E 004°08'0 0.0
2019-Jul-07 10:29N 51°57' E 004°08'0 0.0
2019-Jul-07 09:59N 51°57' E 004°08'0 0.0
2019-Jul-07 09:29N 51°57' E 004°08'0 0.0
2019-Jul-07 08:59N 51°57' E 004°08'0 0.0
2019-Jul-07 08:28N 51°57' E 004°08'0 0.0
2019-Jul-07 07:58N 51°57' E 004°08'0 0.0
2019-Jul-07 07:28N 51°57' E 004°08'0 0.0
2019-Jul-07 07:00N 51°57' E 004°08'1 2.8
2019-Jul-07 06:30N 51°58' E 004°07'815.1
2019-Jul-07 06:00N 52°00' E 003°56'816.7
2019-Jul-07 05:30N 52°03' E 003°43'816.0
2019-Jul-07 05:00N 52°07' E 003°31'815.9
2019-Jul-07 04:29N 52°11' E 003°20'2315.7
2019-Jul-07 03:02N 52°26' E 002°51'216.0
2019-Jul-07 02:56N 52°27' E 002°49'1516.3
2019-Jul-07 02:00N 52°36' E 002°29'817.0
2019-Jul-07 01:31N 52°41' E 002°18'917.1
2019-Jul-07 01:01N 52°45' E 002°06'917.4
2019-Jul-07 00:31N 52°49' E 001°53'1018.3
2019-Jul-06 23:59N 52°54' E 001°39'918.8
2019-Jul-06 23:31N 53°00' E 001°29'1018.8
2019-Jul-06 22:59N 53°08' E 001°18'918.5
2019-Jul-06 22:30N 53°14' E 001°08'1018.2
2019-Jul-06 21:59N 53°21' E 000°57'2217.4
2019-Jul-06 20:43N 53°29' E 000°23'417.2
2019-Jul-06 20:30N 53°31' E 000°17'815.8
2019-Jul-06 20:00N 53°34' E 000°05'815.5
2019-Jul-06 19:30N 53°37' W 000°07'713.4
2019-Jul-06 19:00N 53°42' W 000°14'3 5.0
2019-Jul-06 18:29N 53°44' W 000°17'0 0.0
2019-Jul-06 17:59N 53°44' W 000°17'0 0.0
2019-Jul-06 17:29N 53°44' W 000°17'0 0.0
2019-Jul-06 16:59N 53°44' W 000°17'0 0.0
2019-Jul-06 16:28N 53°44' W 000°17'0 0.0
2019-Jul-06 15:58N 53°44' W 000°17'0 0.0
2019-Jul-06 15:28N 53°44' W 000°17'0 0.0
2019-Jul-06 14:58N 53°44' W 000°17'0 0.0
2019-Jul-06 14:30N 53°44' W 000°17'0 0.0
2019-Jul-06 14:00N 53°44' W 000°17'0 0.0
2019-Jul-06 13:30N 53°44' W 000°17'0 0.0
2019-Jul-06 13:00N 53°44' W 000°17'0 0.0
2019-Jul-06 12:30N 53°44' W 000°17'0 0.0
2019-Jul-06 11:59N 53°44' W 000°17'0 0.0
2019-Jul-06 11:29N 53°44' W 000°17'0 0.0
2019-Jul-06 10:59N 53°44' W 000°17'  

Dump ship's entire track history